Time,TemperatureF,DewpointF,PressureIn,WindDirection,WindDirectionDegrees,WindSpeedMPH,WindSpeedGustMPH,Humidity,HourlyPrecipIn,Conditions,Clouds,dailyrainin,SoftwareType,DateUTC
2013-01-27 00:04:00,22.3,14.3,30.14,SSE,157,4.2,-999.0,71,-99.99,,,0.00,Acu-Link.com,2013-01-27 06:04:00,
2013-01-27 00:19:00,22.3,14.3,30.13,SE,135,4.2,-999.0,71,-99.99,,,0.00,Acu-Link.com,2013-01-27 06:19:00,
2013-01-27 00:34:00,22.1,14.2,30.14,South,180,3.7,-999.0,71,-99.99,,,0.00,Acu-Link.com,2013-01-27 06:34:00,
2013-01-27 00:49:00,22.1,14.5,30.15,South,180,2.7,-999.0,72,-99.99,,,0.00,Acu-Link.com,2013-01-27 06:49:00,
2013-01-27 01:05:00,22.3,15.0,30.14,SSE,157,6.3,-999.0,73,-99.99,,,0.00,Acu-Link.com,2013-01-27 07:05:00,
2013-01-27 01:20:00,21.9,15.2,30.14,South,180,2.7,-999.0,75,-99.99,,,0.00,Acu-Link.com,2013-01-27 07:20:00,
2013-01-27 01:35:00,22.5,16.1,30.14,SSE,157,5.8,-999.0,76,-99.99,,,0.00,Acu-Link.com,2013-01-27 07:35:00,
2013-01-27 01:50:00,22.3,16.8,30.14,South,180,3.7,-999.0,79,-99.99,,,0.00,Acu-Link.com,2013-01-27 07:50:00,
2013-01-27 02:06:00,22.1,17.2,30.14,SSE,157,4.2,-999.0,81,-99.99,,,0.00,Acu-Link.com,2013-01-27 08:06:00,
2013-01-27 02:21:00,22.1,17.7,30.13,SE,135,2.2,-999.0,83,-99.99,,,0.00,Acu-Link.com,2013-01-27 08:21:00,
2013-01-27 02:36:00,22.5,18.7,30.13,SSW,202,2.7,-999.0,85,-99.99,,,0.00,Acu-Link.com,2013-01-27 08:36:00,
2013-01-27 02:51:00,22.6,18.8,30.14,South,180,4.2,-999.0,85,-99.99,,,0.00,Acu-Link.com,2013-01-27 08:51:00,
2013-01-27 03:16:00,22.8,19.3,30.13,ESE,112,4.7,-999.0,86,-99.99,,,0.00,Acu-Link.com,2013-01-27 09:16:00,
2013-01-27 03:31:00,22.8,19.5,30.13,SSE,157,2.7,-999.0,87,-99.99,,,0.00,Acu-Link.com,2013-01-27 09:31:00,
2013-01-27 03:46:00,22.8,19.8,30.10,South,180,6.3,-999.0,88,-99.99,,,0.00,Acu-Link.com,2013-01-27 09:46:00,
2013-01-27 04:01:00,22.1,19.9,30.10,SE,135,4.7,-999.0,91,-99.99,,,0.00,Acu-Link.com,2013-01-27 10:01:00,
2013-01-27 04:17:00,21.9,20.2,30.11,SSE,157,2.7,-999.0,93,-99.99,,,0.00,Acu-Link.com,2013-01-27 10:17:00,
2013-01-27 04:32:00,21.7,20.2,30.10,SSE,157,4.7,-999.0,94,-99.99,,,0.00,Acu-Link.com,2013-01-27 10:32:00,
2013-01-27 04:47:00,21.7,20.2,30.08,SE,135,3.7,-999.0,94,-99.99,,,0.00,Acu-Link.com,2013-01-27 10:47:00,
2013-01-27 05:02:00,21.7,20.5,30.09,SSE,157,3.7,-999.0,95,-99.99,,,0.00,Acu-Link.com,2013-01-27 11:02:00,
2013-01-27 05:17:00,22.1,20.9,30.09,SSE,157,4.7,-999.0,95,-99.99,,,0.00,Acu-Link.com,2013-01-27 11:17:00,
2013-01-27 05:33:00,22.1,20.9,30.09,SSE,157,4.2,-999.0,95,-99.99,,,0.00,Acu-Link.com,2013-01-27 11:33:00,
2013-01-27 05:48:00,22.5,21.3,30.08,SSE,157,3.7,-999.0,95,-99.99,,,0.00,Acu-Link.com,2013-01-27 11:48:00,
2013-01-27 06:03:00,22.6,21.4,30.08,SSE,157,7.3,-999.0,95,-99.99,,,0.00,Acu-Link.com,2013-01-27 12:03:00,
2013-01-27 06:18:00,22.8,21.6,30.07,SSE,157,6.8,-999.0,95,-99.99,,,0.00,Acu-Link.com,2013-01-27 12:18:00,
2013-01-27 06:34:00,23.0,21.8,30.06,SE,135,5.3,-999.0,95,-99.99,,,0.00,Acu-Link.com,2013-01-27 12:34:00,
2013-01-27 06:49:00,23.0,21.8,30.07,SSE,157,4.7,-999.0,95,-99.99,,,0.00,Acu-Link.com,2013-01-27 12:49:00,
2013-01-27 07:04:00,23.4,21.9,30.07,SSE,157,3.2,-999.0,94,-99.99,,,0.00,Acu-Link.com,2013-01-27 13:04:00,
2013-01-27 07:19:00,23.4,21.9,30.07,ESE,112,5.3,-999.0,94,-99.99,,,0.00,Acu-Link.com,2013-01-27 13:19:00,
2013-01-27 07:34:00,23.5,21.8,30.07,SSE,157,6.3,-999.0,93,-99.99,,,0.00,Acu-Link.com,2013-01-27 13:34:00,
2013-01-27 07:50:00,23.9,22.2,30.07,South,180,4.7,-999.0,93,-99.99,,,0.00,Acu-Link.com,2013-01-27 13:50:00,
2013-01-27 08:05:00,24.3,22.3,30.07,SE,135,6.3,-999.0,92,-99.99,,,0.00,Acu-Link.com,2013-01-27 14:05:00,
2013-01-27 08:20:00,25.0,22.8,30.07,SE,135,5.8,-999.0,91,-99.99,,,0.00,Acu-Link.com,2013-01-27 14:20:00,
2013-01-27 08:36:00,25.3,22.3,30.08,South,180,4.7,-999.0,88,-99.99,,,0.00,Acu-Link.com,2013-01-27 14:36:00,
2013-01-27 08:51:00,26.1,22.8,30.08,SSE,157,8.3,-999.0,87,-99.99,,,0.00,Acu-Link.com,2013-01-27 14:51:00,
2013-01-27 09:06:00,26.2,22.6,30.08,SE,135,5.8,-999.0,86,-99.99,,,0.00,Acu-Link.com,2013-01-27 15:06:00,
2013-01-27 09:21:00,26.8,22.6,30.08,SSE,157,6.3,-999.0,84,-99.99,,,0.00,Acu-Link.com,2013-01-27 15:21:00,
2013-01-27 09:36:00,27.1,22.9,30.08,SE,135,6.8,-999.0,84,-99.99,,,0.00,Acu-Link.com,2013-01-27 15:36:00,
2013-01-27 09:52:00,27.3,22.5,30.07,SSE,157,4.2,-999.0,82,-99.99,,,0.00,Acu-Link.com,2013-01-27 15:52:00,
2013-01-27 10:07:00,27.7,23.2,30.06,SSE,157,9.9,-999.0,83,-99.99,,,0.00,Acu-Link.com,2013-01-27 16:07:00,
2013-01-27 10:22:00,28.2,23.4,30.05,SSE,157,5.8,-999.0,82,-99.99,,,0.00,Acu-Link.com,2013-01-27 16:22:00,
2013-01-27 10:37:00,28.6,23.5,30.05,SSE,157,11.9,-999.0,81,-99.99,,,0.00,Acu-Link.com,2013-01-27 16:37:00,
2013-01-27 10:52:00,28.8,24.6,30.04,South,180,8.3,-999.0,84,-99.99,,,0.00,Acu-Link.com,2013-01-27 16:52:00,
2013-01-27 11:09:00,29.3,24.8,30.03,SSE,157,6.3,-999.0,83,-99.99,,,0.00,Acu-Link.com,2013-01-27 17:09:00,
2013-01-27 11:24:00,29.3,24.8,30.02,ESE,112,7.8,-999.0,83,-99.99,,,0.00,Acu-Link.com,2013-01-27 17:24:00,
2013-01-27 11:39:00,29.8,24.7,30.01,SE,135,8.9,-999.0,81,-99.99,,,0.00,Acu-Link.com,2013-01-27 17:39:00,
2013-01-27 11:55:00,29.7,24.6,29.99,SSE,157,5.8,-999.0,81,-99.99,,,0.00,Acu-Link.com,2013-01-27 17:55:00,
2013-01-27 12:10:00,29.8,24.7,29.99,SE,135,8.9,-999.0,81,-99.99,,,0.00,Acu-Link.com,2013-01-27 18:10:00,
2013-01-27 12:25:00,29.8,24.7,29.96,East,90,6.8,-999.0,81,-99.99,,,0.00,Acu-Link.com,2013-01-27 18:25:00,
2013-01-27 12:40:00,30.2,25.4,29.95,SSE,157,6.8,-999.0,82,-99.99,,,0.00,Acu-Link.com,2013-01-27 18:40:00,
2013-01-27 12:55:00,30.2,25.1,29.95,SSE,157,5.3,-999.0,81,-99.99,,,0.00,Acu-Link.com,2013-01-27 18:55:00,
2013-01-27 13:11:00,30.6,25.8,29.94,ESE,112,8.9,-999.0,82,-99.99,,,0.00,Acu-Link.com,2013-01-27 19:11:00,
2013-01-27 13:26:00,30.4,25.6,29.95,SSE,157,7.3,-999.0,82,-99.99,,,0.00,Acu-Link.com,2013-01-27 19:26:00,
2013-01-27 13:41:00,28.9,27.7,29.94,SE,135,6.3,-999.0,95,-99.99,,,0.00,Acu-Link.com,2013-01-27 19:41:00,
2013-01-27 13:56:00,27.9,27.7,29.93,SE,135,5.3,-999.0,99,-99.99,,,0.00,Acu-Link.com,2013-01-27 19:56:00,
2013-01-27 14:11:00,29.3,29.1,29.92,ESE,112,5.3,-999.0,99,-99.99,,,0.00,Acu-Link.com,2013-01-27 20:11:00,
2013-01-27 14:27:00,27.7,27.5,29.90,ESE,112,7.3,-999.0,99,-99.99,,,0.00,Acu-Link.com,2013-01-27 20:27:00,
2013-01-27 14:42:00,28.2,28.0,29.87,ESE,112,4.2,-999.0,99,-99.99,,,0.00,Acu-Link.com,2013-01-27 20:42:00,
2013-01-27 14:57:00,28.2,28.0,29.87,ESE,112,6.8,-999.0,99,-99.99,,,0.00,Acu-Link.com,2013-01-27 20:57:00,
2013-01-27 15:12:00,28.6,28.4,29.86,SSE,157,7.3,-999.0,99,-99.99,,,0.00,Acu-Link.com,2013-01-27 21:12:00,
2013-01-27 15:27:00,28.2,28.0,29.87,SE,135,8.3,-999.0,99,-99.99,,,0.00,Acu-Link.com,2013-01-27 21:27:00,
2013-01-27 15:43:00,28.0,27.8,29.86,ESE,112,10.4,-999.0,99,-99.99,,,0.00,Acu-Link.com,2013-01-27 21:43:00,
2013-01-27 15:58:00,29.1,28.9,29.82,ESE,112,16.6,-999.0,99,-99.99,,,0.00,Acu-Link.com,2013-01-27 21:58:00,
2013-01-27 16:13:00,28.6,28.4,29.82,SE,135,6.3,-999.0,99,-99.99,,,0.00,Acu-Link.com,2013-01-27 22:13:00,
2013-01-27 16:28:00,28.4,28.2,29.81,ESE,112,13.0,-999.0,99,-99.99,,,0.00,Acu-Link.com,2013-01-27 22:28:00,
2013-01-27 16:44:00,29.1,28.9,29.81,SSE,157,7.8,-999.0,99,-99.99,,,0.00,Acu-Link.com,2013-01-27 22:44:00,
2013-01-27 16:59:00,28.9,28.7,29.80,ESE,112,7.8,-999.0,99,-99.99,,,0.00,Acu-Link.com,2013-01-27 22:59:00,
2013-01-27 17:14:00,28.8,28.6,29.78,SE,135,7.3,-999.0,99,-99.99,,,0.00,Acu-Link.com,2013-01-27 23:14:00,
2013-01-27 17:29:00,28.8,28.6,29.78,SE,135,13.5,-999.0,99,-99.99,,,0.00,Acu-Link.com,2013-01-27 23:29:00,
2013-01-27 17:44:00,28.9,28.7,29.77,ESE,112,6.3,-999.0,99,-99.99,,,0.00,Acu-Link.com,2013-01-27 23:44:00,
2013-01-27 18:00:00,29.1,28.9,29.76,SE,135,8.9,-999.0,99,-99.99,,,0.00,Acu-Link.com,2013-01-28 00:00:00,
2013-01-27 18:15:00,29.1,28.9,29.77,ESE,112,7.3,-999.0,99,-99.99,,,0.00,Acu-Link.com,2013-01-28 00:15:00,
2013-01-27 18:30:00,29.1,28.9,29.75,SSE,157,5.3,-999.0,99,-99.99,,,0.00,Acu-Link.com,2013-01-28 00:30:00,
2013-01-27 18:45:00,29.1,28.9,29.75,ESE,112,6.8,-999.0,99,-99.99,,,0.00,Acu-Link.com,2013-01-28 00:45:00,
2013-01-27 19:00:00,29.1,28.9,29.75,ESE,112,6.3,-999.0,99,-99.99,,,0.00,Acu-Link.com,2013-01-28 01:00:00,
2013-01-27 19:16:00,29.5,29.3,29.75,East,90,5.8,-999.0,99,-99.99,,,0.00,Acu-Link.com,2013-01-28 01:16:00,
2013-01-27 19:31:00,29.5,29.3,29.74,ESE,112,6.3,-999.0,99,-99.99,,,0.00,Acu-Link.com,2013-01-28 01:31:00,
2013-01-27 19:46:00,29.8,29.6,29.74,SE,135,6.3,-999.0,99,-99.99,,,0.00,Acu-Link.com,2013-01-28 01:46:00,
2013-01-27 20:01:00,30.2,30.0,29.73,ESE,112,6.3,-999.0,99,-99.99,,,0.00,Acu-Link.com,2013-01-28 02:01:00,
2013-01-27 20:17:00,30.4,30.2,29.73,ESE,112,5.3,-999.0,99,-99.99,,,0.00,Acu-Link.com,2013-01-28 02:17:00,
2013-01-27 20:32:00,30.7,30.5,29.72,SE,135,4.2,-999.0,99,-99.99,,,0.00,Acu-Link.com,2013-01-28 02:32:00,
2013-01-27 20:47:00,30.9,30.7,29.71,SE,135,7.3,-999.0,99,-99.99,,,0.00,Acu-Link.com,2013-01-28 02:47:00,
2013-01-27 21:02:00,31.3,31.1,29.72,ESE,112,3.2,-999.0,99,-99.99,,,0.00,Acu-Link.com,2013-01-28 03:02:00,
2013-01-27 21:17:00,31.5,30.0,29.72,SSE,157,2.2,-999.0,94,-99.99,,,0.00,Acu-Link.com,2013-01-28 03:17:00,
2013-01-27 21:33:00,31.6,30.1,29.70,ESE,112,3.7,-999.0,94,-99.99,,,0.00,Acu-Link.com,2013-01-28 03:33:00,
2013-01-27 21:48:00,31.8,31.6,29.70,SE,135,5.3,-999.0,99,-99.99,,,0.00,Acu-Link.com,2013-01-28 03:48:00,
2013-01-27 22:03:00,32.0,31.5,29.69,ESE,112,3.2,-999.0,98,-99.99,,,0.00,Acu-Link.com,2013-01-28 04:03:00,
2013-01-27 22:18:00,32.2,31.7,29.69,SE,135,3.2,-999.0,98,-99.99,,,0.00,Acu-Link.com,2013-01-28 04:18:00,
2013-01-27 22:33:00,32.5,32.0,29.68,SSE,157,5.8,-999.0,98,-99.99,,,0.00,Acu-Link.com,2013-01-28 04:33:00,
2013-01-27 22:49:00,32.7,32.2,29.67,SE,135,4.7,-999.0,98,-99.99,,,0.00,Acu-Link.com,2013-01-28 04:49:00,
2013-01-27 23:04:00,32.9,32.4,29.67,SE,135,4.7,-999.0,98,-99.99,,,0.00,Acu-Link.com,2013-01-28 05:04:00,
2013-01-27 23:19:00,33.1,32.6,29.67,SSE,157,3.2,-999.0,98,-99.99,,,0.00,Acu-Link.com,2013-01-28 05:19:00,
2013-01-27 23:34:00,33.1,32.6,29.67,SE,135,4.2,-999.0,98,-99.99,,,0.00,Acu-Link.com,2013-01-28 05:34:00,
2013-01-27 23:49:00,33.4,32.9,29.66,SSE,157,2.2,-999.0,98,-99.99,,,0.00,Acu-Link.com,2013-01-28 05:49:00,